Time;durP1;ratioP1;P1;durP2;ratioP2;P2;SDS_P1;SDS_P2;PMS_P1;PMS_P2;Temp;Humidity;BMP_temperature;BMP_pressure;BME280_temperature;BME280_humidity;BME280_pressure;Samples;Min_cycle;Max_cycle;Signal;HPM_P1;HPM_P2
2022/06/22 00:00:52;;;;;;;1.93;1.43;;;;;;;;;;5082952;28;20205;-72
2022/06/22 00:03:41;;;;;;;1.83;1.33;;;;;;;;;;5083497;28;20296;-73
2022/06/22 00:06:34;;;;;;;2.23;1.70;;;;;;;;;;5079673;28;20248;-72
2022/06/22 00:09:27;;;;;;;2.27;1.70;;;;;;;;;;5084038;28;20220;-72
2022/06/22 00:12:23;;;;;;;2.20;1.63;;;;;;;;;;5083770;28;20626;-73
2022/06/22 00:15:23;;;;;;;1.50;1.40;;;;;;;;;;5083020;28;20200;-73
2022/06/22 00:18:32;;;;;;;1.87;1.77;;;;;;;;;;5086940;28;20203;-72
2022/06/22 00:21:23;;;;;;;1.70;1.60;;;;;;;;;;5084338;28;20202;-72
2022/06/22 00:24:36;;;;;;;1.70;1.60;;;;;;;;;;5084389;28;20229;-73
2022/06/22 00:27:30;;;;;;;1.90;1.80;;;;;;;;;;5083918;28;20213;-73
2022/06/22 00:30:27;;;;;;;1.70;1.60;;;;;;;;;;5078484;28;20698;-73
2022/06/22 00:33:16;;;;;;;1.60;1.50;;;;;;;;;;5082487;28;20198;-72
2022/06/22 00:36:15;;;;;;;1.80;1.70;;;;;;;;;;5086152;28;20208;-72
2022/06/22 00:39:16;;;;;;;2.13;1.97;;;;;;;;;;5080419;28;20579;-72
2022/06/22 00:42:24;;;;;;;1.70;1.60;;;;;;;;;;5083532;28;20197;-72
2022/06/22 00:45:13;;;;;;;1.80;1.70;;;;;;;;;;5081480;28;20200;-72
2022/06/22 00:48:05;;;;;;;1.70;1.60;;;;;;;;;;5079331;28;20233;-73
2022/06/22 00:51:00;;;;;;;2.27;1.77;;;;;;;;;;5075489;28;20585;-72
2022/06/22 00:53:54;;;;;;;1.97;1.70;;;;;;;;;;5079927;28;20699;-72
2022/06/22 00:56:48;;;;;;;1.90;1.80;;;;;;;;;;5075709;28;20212;-72
2022/06/22 00:59:40;;;;;;;2.60;1.90;;;;;;;;;;5083116;28;20271;-73
2022/06/22 01:02:37;;;;;;;2.23;2.00;;;;;;;;;;5078669;28;20299;-68
2022/06/22 01:05:30;;;;;;;1.87;1.77;;;;;;;;;;5080857;28;20210;-68
2022/06/22 01:08:22;;;;;;;2.13;1.73;;;;;;;;;;5057248;28;20231;-69
2022/06/22 01:14:21;;;;;;;1.77;1.70;;;;;;;;;;5059788;28;20216;-68
2022/06/22 01:17:18;;;;;;;2.20;1.90;;;;;;;;;;5058569;28;20668;-68
2022/06/22 01:20:11;;;;;;;1.70;1.60;;;;;;;;;;5063083;28;20587;-69
2022/06/22 01:23:16;;;;;;;1.80;1.70;;;;;;;;;;5058657;28;20243;-68
2022/06/22 01:26:21;;;;;;;2.43;1.80;;;;;;;;;;5062631;28;20660;-68
2022/06/22 01:29:14;;;;;;;2.27;2.07;;;;;;;;;;5065630;28;20302;-69
2022/06/22 01:32:03;;;;;;;2.10;2.00;;;;;;;;;;5058971;28;20237;-68
2022/06/22 01:34:51;;;;;;;2.10;1.90;;;;;;;;;;5064551;28;20641;-68
2022/06/22 01:37:39;;;;;;;2.13;1.80;;;;;;;;;;5057587;28;20282;-69
2022/06/22 01:40:34;;;;;;;2.30;1.93;;;;;;;;;;5065169;28;20320;-68
2022/06/22 01:43:28;;;;;;;1.83;1.73;;;;;;;;;;5055229;28;20372;-68
2022/06/22 01:46:23;;;;;;;2.17;1.70;;;;;;;;;;5060115;28;20293;-69
2022/06/22 01:49:15;;;;;;;2.30;2.10;;;;;;;;;;5056489;28;20283;-68
2022/06/22 01:52:11;;;;;;;2.00;1.80;;;;;;;;;;5059883;28;20205;-69
2022/06/22 01:55:02;;;;;;;2.20;2.03;;;;;;;;;;5057994;28;20232;-69
2022/06/22 01:57:57;;;;;;;2.20;2.00;;;;;;;;;;5062153;28;20210;-69
2022/06/22 02:00:47;;;;;;;2.10;2.00;;;;;;;;;;5061721;28;20209;-68
2022/06/22 02:03:41;;;;;;;1.90;1.70;;;;;;;;;;5061962;28;20237;-68
2022/06/22 02:09:54;;;;;;;2.00;1.80;;;;;;;;;;5076491;28;20244;-69
2022/06/22 02:12:46;;;;;;;1.60;1.50;;;;;;;;;;5077933;28;20208;-69
2022/06/22 02:15:48;;;;;;;2.17;2.07;;;;;;;;;;5075592;28;20208;-69
2022/06/22 02:18:43;;;;;;;2.13;2.03;;;;;;;;;;5077048;28;20202;-69
2022/06/22 02:21:38;;;;;;;2.33;2.00;;;;;;;;;;5075617;28;20213;-69
2022/06/22 02:24:29;;;;;;;2.53;2.33;;;;;;;;;;5074298;28;20232;-68
2022/06/22 02:27:20;;;;;;;2.20;2.10;;;;;;;;;;5076716;28;20213;-69
2022/06/22 02:30:08;;;;;;;1.90;1.80;;;;;;;;;;5078220;28;20209;-69
2022/06/22 02:32:55;;;;;;;2.07;1.93;;;;;;;;;;5076393;28;20218;-69
2022/06/22 02:35:44;;;;;;;2.30;2.10;;;;;;;;;;5078801;28;20234;-69
2022/06/22 02:38:31;;;;;;;2.30;2.07;;;;;;;;;;5077626;28;20209;-69
2022/06/22 02:44:31;;;;;;;2.30;2.10;;;;;;;;;;5076565;28;20273;-69
2022/06/22 02:47:22;;;;;;;2.30;2.10;;;;;;;;;;5072811;28;20214;-69
2022/06/22 02:50:30;;;;;;;2.40;2.20;;;;;;;;;;5078728;28;20256;-70
2022/06/22 02:53:24;;;;;;;2.30;2.20;;;;;;;;;;5083083;28;20211;-69
2022/06/22 02:56:15;;;;;;;2.23;2.13;;;;;;;;;;5076068;28;20665;-70
2022/06/22 02:59:02;;;;;;;2.13;1.93;;;;;;;;;;5076738;28;20200;-69
2022/06/22 03:01:49;;;;;;;2.10;1.93;;;;;;;;;;5073519;28;20234;-69
2022/06/22 03:04:36;;;;;;;2.23;2.03;;;;;;;;;;5077327;28;20271;-69
2022/06/22 03:07:24;;;;;;;3.30;2.20;;;;;;;;;;5062057;28;20225;-69
2022/06/22 03:10:23;;;;;;;2.57;2.37;;;;;;;;;;5060373;28;20665;-69
2022/06/22 03:13:11;;;;;;;2.63;2.43;;;;;;;;;;5050437;28;20213;-69
2022/06/22 03:16:00;;;;;;;2.00;1.90;;;;;;;;;;5058233;28;20607;-69
2022/06/22 03:18:50;;;;;;;2.30;2.10;;;;;;;;;;5053063;28;20225;-69
2022/06/22 03:21:37;;;;;;;2.00;1.80;;;;;;;;;;5054044;28;20211;-70
2022/06/22 03:24:35;;;;;;;3.50;2.30;;;;;;;;;;5055601;28;20305;-69
2022/06/22 03:27:28;;;;;;;2.20;2.00;;;;;;;;;;5057307;28;20217;-69
2022/06/22 03:30:19;;;;;;;1.97;1.80;;;;;;;;;;5059100;28;20274;-69
2022/06/22 03:33:09;;;;;;;2.33;2.13;;;;;;;;;;5055464;28;20247;-69
2022/06/22 03:36:01;;;;;;;2.13;2.00;;;;;;;;;;5055987;28;20312;-70
2022/06/22 03:38:53;;;;;;;2.93;2.30;;;;;;;;;;5058716;28;20661;-69
2022/06/22 03:41:43;;;;;;;2.40;2.20;;;;;;;;;;5055006;28;20268;-69
2022/06/22 03:44:35;;;;;;;2.50;2.30;;;;;;;;;;5060276;28;20238;-69
2022/06/22 03:47:26;;;;;;;2.17;2.07;;;;;;;;;;5061172;28;20213;-69
2022/06/22 03:50:23;;;;;;;2.10;2.00;;;;;;;;;;5062593;28;20561;-69
2022/06/22 03:53:14;;;;;;;2.00;1.90;;;;;;;;;;5057750;28;20274;-69
2022/06/22 03:56:05;;;;;;;2.10;2.00;;;;;;;;;;5060250;28;20213;-69
2022/06/22 03:58:54;;;;;;;2.40;2.20;;;;;;;;;;5065906;28;20202;-69
2022/06/22 04:01:43;;;;;;;2.00;1.90;;;;;;;;;;5059446;28;20668;-69
2022/06/22 04:04:31;;;;;;;2.20;2.03;;;;;;;;;;5060231;28;20238;-69
2022/06/22 04:07:18;;;;;;;2.53;2.10;;;;;;;;;;5070572;28;20276;-68
2022/06/22 04:10:08;;;;;;;1.90;1.60;;;;;;;;;;5086129;28;20583;-69
2022/06/22 04:12:56;;;;;;;2.50;2.23;;;;;;;;;;5069955;28;20212;-69
2022/06/22 04:15:50;;;;;;;2.20;2.10;;;;;;;;;;5080093;28;20291;-69
2022/06/22 04:18:43;;;;;;;2.23;2.07;;;;;;;;;;5079382;28;20212;-70
2022/06/22 04:21:34;;;;;;;2.10;2.00;;;;;;;;;;5081776;28;20209;-69
2022/06/22 04:24:25;;;;;;;1.80;1.67;;;;;;;;;;5072660;28;20226;-69
2022/06/22 04:27:16;;;;;;;1.90;1.73;;;;;;;;;;5079070;28;20643;-69
2022/06/22 04:30:10;;;;;;;1.70;1.60;;;;;;;;;;5083576;28;20736;-69
2022/06/22 04:33:08;;;;;;;2.37;2.07;;;;;;;;;;5074622;28;20225;-69
2022/06/22 04:36:00;;;;;;;1.87;1.77;;;;;;;;;;5083076;28;20285;-69
2022/06/22 04:38:50;;;;;;;2.00;1.80;;;;;;;;;;5080406;28;20210;-69
2022/06/22 04:41:40;;;;;;;2.17;1.90;;;;;;;;;;5081969;28;20215;-69
2022/06/22 04:44:31;;;;;;;2.07;1.80;;;;;;;;;;5081878;28;20220;-68
2022/06/22 04:47:24;;;;;;;2.37;2.17;;;;;;;;;;5079000;28;20202;-68
2022/06/22 04:50:14;;;;;;;1.93;1.83;;;;;;;;;;5084219;28;20210;-68
2022/06/22 04:53:04;;;;;;;2.00;1.90;;;;;;;;;;5075538;28;20206;-69
2022/06/22 04:55:53;;;;;;;2.00;1.80;;;;;;;;;;5080150;28;20215;-69
2022/06/22 04:58:44;;;;;;;1.90;1.80;;;;;;;;;;5080594;28;20268;-69
2022/06/22 05:01:34;;;;;;;1.67;1.57;;;;;;;;;;5082841;28;20277;-69
2022/06/22 05:04:25;;;;;;;1.93;1.70;;;;;;;;;;5078478;28;20234;-69
2022/06/22 05:07:28;;;;;;;1.83;1.73;;;;;;;;;;5084969;28;20832;-69
2022/06/22 05:10:22;;;;;;;1.77;1.57;;;;;;;;;;5078979;28;20612;-69
2022/06/22 05:13:14;;;;;;;1.80;1.70;;;;;;;;;;5074707;28;20679;-69
2022/06/22 05:16:05;;;;;;;1.97;1.73;;;;;;;;;;5080429;28;20737;-68
2022/06/22 05:18:53;;;;;;;2.03;1.60;;;;;;;;;;5084318;28;20233;-69
2022/06/22 05:21:45;;;;;;;1.80;1.67;;;;;;;;;;5081444;28;20213;-69
2022/06/22 05:24:37;;;;;;;1.50;1.40;;;;;;;;;;5072908;28;20222;-69
2022/06/22 05:27:28;;;;;;;1.87;1.70;;;;;;;;;;5079054;28;20246;-69
2022/06/22 05:30:16;;;;;;;2.03;1.90;;;;;;;;;;5075531;28;20228;-68
2022/06/22 05:33:07;;;;;;;1.57;1.47;;;;;;;;;;5079498;28;20233;-68
2022/06/22 05:36:03;;;;;;;2.07;1.70;;;;;;;;;;5078228;28;20205;-69
2022/06/22 05:38:52;;;;;;;1.73;1.50;;;;;;;;;;5073160;28;20259;-68
2022/06/22 05:41:45;;;;;;;2.13;1.60;;;;;;;;;;5082634;28;20434;-68
2022/06/22 05:44:34;;;;;;;2.10;1.63;;;;;;;;;;5079750;28;20302;-68
2022/06/22 05:47:27;;;;;;;1.60;1.50;;;;;;;;;;5081778;28;20229;-69
2022/06/22 05:50:26;;;;;;;1.37;1.30;;;;;;;;;;5078174;28;20202;-69
2022/06/22 05:53:18;;;;;;;1.53;1.30;;;;;;;;;;5074606;28;20262;-69
2022/06/22 05:56:15;;;;;;;1.93;1.83;;;;;;;;;;5083311;28;20597;-68
2022/06/22 05:59:07;;;;;;;1.73;1.50;;;;;;;;;;5077263;28;20260;-69
2022/06/22 06:02:02;;;;;;;1.63;1.40;;;;;;;;;;5075694;28;20328;-68
2022/06/22 06:04:56;;;;;;;1.60;1.50;;;;;;;;;;5075675;28;20220;-69
2022/06/22 06:07:46;;;;;;;1.50;1.40;;;;;;;;;;5081086;28;20349;-68
2022/06/22 06:10:35;;;;;;;2.87;1.40;;;;;;;;;;5073589;28;20283;-68
2022/06/22 06:13:27;;;;;;;2.53;1.57;;;;;;;;;;5069036;28;20243;-69
2022/06/22 06:16:20;;;;;;;2.03;1.33;;;;;;;;;;5078030;28;20201;-68
2022/06/22 06:19:09;;;;;;;1.57;1.40;;;;;;;;;;5080026;28;20211;-69
2022/06/22 06:22:00;;;;;;;1.30;1.20;;;;;;;;;;5073939;28;20202;-68
2022/06/22 06:28:02;;;;;;;1.50;1.40;;;;;;;;;;5080715;28;20239;-69
2022/06/22 06:30:53;;;;;;;1.50;1.40;;;;;;;;;;5072537;28;20790;-69
2022/06/22 06:33:40;;;;;;;1.93;1.17;;;;;;;;;;5077853;28;20581;-68
2022/06/22 06:36:33;;;;;;;1.40;1.30;;;;;;;;;;5078221;28;20326;-69
2022/06/22 06:39:24;;;;;;;1.60;1.50;;;;;;;;;;5080580;28;20254;-69
2022/06/22 06:42:23;;;;;;;1.40;1.30;;;;;;;;;;5075930;28;20211;-69
2022/06/22 06:45:15;;;;;;;1.47;1.33;;;;;;;;;;5080486;28;20232;-68
2022/06/22 06:48:07;;;;;;;1.83;1.20;;;;;;;;;;5077329;28;20226;-69
2022/06/22 06:50:57;;;;;;;1.50;1.40;;;;;;;;;;5077859;28;20213;-69
2022/06/22 06:53:50;;;;;;;1.70;1.60;;;;;;;;;;5082076;28;20214;-68
2022/06/22 06:56:42;;;;;;;1.53;1.30;;;;;;;;;;5081115;28;20231;-69
2022/06/22 06:59:31;;;;;;;1.87;1.40;;;;;;;;;;5076287;28;20211;-68
2022/06/22 07:02:25;;;;;;;1.30;1.20;;;;;;;;;;5076871;28;20220;-69
2022/06/22 07:05:15;;;;;;;1.40;1.30;;;;;;;;;;5075139;28;20694;-69
2022/06/22 07:08:07;;;;;;;1.50;1.40;;;;;;;;;;5076964;28;20210;-68
2022/06/22 07:11:01;;;;;;;1.50;1.40;;;;;;;;;;5074560;28;20216;-69
2022/06/22 07:13:51;;;;;;;1.43;1.37;;;;;;;;;;5083437;28;20257;-68
2022/06/22 07:16:39;;;;;;;1.67;1.57;;;;;;;;;;5076739;28;20235;-69
2022/06/22 07:19:31;;;;;;;1.30;1.20;;;;;;;;;;5074881;28;20205;-69
2022/06/22 07:22:25;;;;;;;1.40;1.30;;;;;;;;;;5084175;28;20210;-68
2022/06/22 07:25:18;;;;;;;1.50;1.40;;;;;;;;;;5080303;28;20222;-68
2022/06/22 07:28:14;;;;;;;1.50;1.40;;;;;;;;;;5082969;28;20205;-69
2022/06/22 07:31:06;;;;;;;1.40;1.30;;;;;;;;;;5078541;28;20206;-68
2022/06/22 07:34:00;;;;;;;1.20;1.17;;;;;;;;;;5082135;28;20573;-68
2022/06/22 07:36:51;;;;;;;1.37;1.10;;;;;;;;;;5083000;28;20205;-68
2022/06/22 07:39:43;;;;;;;1.40;1.30;;;;;;;;;;5082103;28;20203;-68
2022/06/22 07:42:30;;;;;;;1.40;1.30;;;;;;;;;;5082865;28;20210;-69
2022/06/22 07:45:22;;;;;;;1.40;1.30;;;;;;;;;;5079218;28;20266;-68
2022/06/22 07:48:16;;;;;;;1.30;1.20;;;;;;;;;;5083087;28;20211;-69
2022/06/22 07:51:08;;;;;;;1.67;1.53;;;;;;;;;;5071983;28;20214;-70
2022/06/22 07:53:58;;;;;;;1.40;1.30;;;;;;;;;;5077983;28;20217;-69
2022/06/22 07:56:55;;;;;;;1.33;1.23;;;;;;;;;;5079862;28;20578;-69
2022/06/22 07:59:47;;;;;;;1.30;1.20;;;;;;;;;;5074403;28;20222;-69
2022/06/22 08:02:42;;;;;;;2.07;1.30;;;;;;;;;;5081502;28;20696;-69
2022/06/22 08:05:34;;;;;;;1.10;1.10;;;;;;;;;;5080540;28;20225;-68
2022/06/22 08:08:26;;;;;;;1.73;1.20;;;;;;;;;;5074034;28;20210;-69
2022/06/22 08:11:18;;;;;;;1.40;1.30;;;;;;;;;;5079987;28;20730;-69
2022/06/22 08:14:10;;;;;;;1.50;1.40;;;;;;;;;;5085790;28;20265;-69
2022/06/22 08:17:01;;;;;;;1.10;1.00;;;;;;;;;;5087270;28;20206;-70
2022/06/22 08:19:49;;;;;;;1.53;1.20;;;;;;;;;;5080737;28;20613;-69
2022/06/22 08:22:36;;;;;;;1.90;1.60;;;;;;;;;;5081661;28;20574;-69
2022/06/22 08:25:24;;;;;;;1.50;1.40;;;;;;;;;;5085292;28;20684;-69
2022/06/22 08:28:13;;;;;;;1.63;1.53;;;;;;;;;;5080186;28;20290;-69
2022/06/22 08:31:00;;;;;;;1.60;1.27;;;;;;;;;;5084123;28;20213;-69
2022/06/22 08:33:53;;;;;;;1.60;1.50;;;;;;;;;;5081571;28;20197;-69
2022/06/22 08:36:47;;;;;;;1.33;1.23;;;;;;;;;;5077741;28;20202;-69
2022/06/22 08:39:39;;;;;;;1.33;1.23;;;;;;;;;;5080610;28;20218;-69
2022/06/22 08:42:38;;;;;;;1.60;1.33;;;;;;;;;;5077266;28;20671;-69
2022/06/22 08:46:12;;;;;;;1.23;1.10;;;;;;;;;;5080460;28;20591;-69
2022/06/22 08:49:42;;;;;;;1.37;1.27;;;;;;;;;;5081108;28;20206;-69
2022/06/22 08:52:45;;;;;;;1.30;1.20;;;;;;;;;;5078700;28;20295;-69
2022/06/22 08:55:51;;;;;;;1.53;1.17;;;;;;;;;;5073839;28;20211;-68
2022/06/22 08:59:04;;;;;;;1.00;1.00;;;;;;;;;;5080770;28;20289;-69
2022/06/22 09:02:05;;;;;;;1.30;1.20;;;;;;;;;;5084822;28;20757;-68
2022/06/22 09:05:21;;;;;;;0.87;0.87;;;;;;;;;;5081062;28;20213;-69
2022/06/22 09:08:29;;;;;;;1.30;1.20;;;;;;;;;;5077660;28;20239;-69
2022/06/22 09:11:21;;;;;;;1.57;1.10;;;;;;;;;;5081871;28;20205;-68
2022/06/22 09:14:51;;;;;;;1.20;1.10;;;;;;;;;;5082750;28;20232;-69
2022/06/22 09:18:09;;;;;;;1.00;1.00;;;;;;;;;;5081258;28;20294;-69
2022/06/22 09:21:11;;;;;;;0.90;0.90;;;;;;;;;;5082691;28;20307;-68
2022/06/22 09:24:07;;;;;;;1.10;1.00;;;;;;;;;;5080903;28;20241;-68
2022/06/22 09:27:04;;;;;;;0.93;0.93;;;;;;;;;;5073262;28;20228;-68
2022/06/22 09:30:06;;;;;;;0.80;0.80;;;;;;;;;;5078964;28;20414;-68
2022/06/22 09:33:32;;;;;;;1.33;0.83;;;;;;;;;;5079343;28;20200;-68
2022/06/22 09:36:49;;;;;;;1.23;0.90;;;;;;;;;;5080424;28;20291;-68
2022/06/22 09:39:59;;;;;;;1.00;0.90;;;;;;;;;;5068407;28;20873;-68
2022/06/22 09:43:06;;;;;;;0.87;0.87;;;;;;;;;;5077280;28;20219;-68
2022/06/22 09:46:07;;;;;;;0.73;0.73;;;;;;;;;;5071444;28;20706;-70
2022/06/22 09:49:22;;;;;;;0.80;0.80;;;;;;;;;;5075965;28;20263;-69
2022/06/22 09:52:26;;;;;;;0.83;0.80;;;;;;;;;;5061461;28;20212;-69
2022/06/22 09:59:24;;;;;;;0.60;0.60;;;;;;;;;;4993768;28;20211;-69
2022/06/22 10:02:27;;;;;;;0.70;0.70;;;;;;;;;;4994818;28;20344;-69
2022/06/22 10:06:01;;;;;;;0.90;0.90;;;;;;;;;;5077237;28;20207;-69
2022/06/22 10:08:59;;;;;;;0.73;0.73;;;;;;;;;;5078089;28;20219;-68
2022/06/22 10:11:56;;;;;;;0.73;0.73;;;;;;;;;;5079149;28;20214;-68
2022/06/22 10:15:11;;;;;;;1.10;0.93;;;;;;;;;;5072792;28;20222;-68
2022/06/22 10:18:14;;;;;;;0.90;0.90;;;;;;;;;;5082234;28;20203;-69
2022/06/22 10:21:11;;;;;;;0.73;0.73;;;;;;;;;;5074137;28;20707;-70
2022/06/22 10:24:15;;;;;;;0.80;0.80;;;;;;;;;;5071759;28;20198;-69
2022/06/22 10:27:33;;;;;;;0.87;0.87;;;;;;;;;;5078200;28;20329;-68
2022/06/22 10:30:27;;;;;;;0.87;0.87;;;;;;;;;;5081362;28;20211;-70
2022/06/22 10:33:35;;;;;;;0.70;0.70;;;;;;;;;;5078172;28;20221;-70
2022/06/22 10:36:52;;;;;;;0.50;0.50;;;;;;;;;;5080259;28;20262;-70
2022/06/22 10:45:08;;;;;;;0.73;0.73;;;;;;;;;;5072761;28;20226;-71
2022/06/22 10:46:41;;;;;;;0.87;0.87;;;;;;;;;;5067959;28;20637;-71
2022/06/22 10:49:50;;;;;;;0.77;0.63;;;;;;;;;;5079868;28;20295;-70
2022/06/22 10:52:56;;;;;;;1.10;0.93;;;;;;;;;;5072408;28;20285;-70
2022/06/22 10:55:59;;;;;;;0.50;0.50;;;;;;;;;;5078174;28;20214;-70
2022/06/22 10:59:03;;;;;;;0.67;0.67;;;;;;;;;;5073825;28;20215;-72
2022/06/22 11:02:12;;;;;;;0.63;0.63;;;;;;;;;;5079013;28;20227;-70
2022/06/22 11:05:16;;;;;;;0.83;0.60;;;;;;;;;;5074414;28;20594;-69
2022/06/22 11:08:30;;;;;;;0.77;0.77;;;;;;;;;;5075074;28;20223;-69
2022/06/22 11:11:32;;;;;;;0.53;0.53;;;;;;;;;;5075470;28;20211;-70
2022/06/22 11:15:01;;;;;;;1.07;0.80;;;;;;;;;;5080523;28;20574;-70
2022/06/22 11:18:20;;;;;;;0.60;0.50;;;;;;;;;;5085014;28;20200;-69
2022/06/22 11:21:16;;;;;;;0.57;0.57;;;;;;;;;;5067179;28;20695;-70
2022/06/22 11:24:40;;;;;;;0.53;0.53;;;;;;;;;;5079288;28;20202;-69
2022/06/22 11:30:53;;;;;;;0.70;0.70;;;;;;;;;;5078693;28;20254;-70
2022/06/22 11:33:57;;;;;;;0.50;0.50;;;;;;;;;;5075114;28;20558;-69
2022/06/22 11:36:52;;;;;;;0.50;0.50;;;;;;;;;;5078548;28;20203;-69
2022/06/22 11:39:59;;;;;;;0.50;0.50;;;;;;;;;;5074058;28;20202;-69
2022/06/22 11:42:57;;;;;;;0.70;0.70;;;;;;;;;;5077780;28;20283;-69
2022/06/22 11:45:54;;;;;;;0.50;0.50;;;;;;;;;;5071496;28;20257;-69
2022/06/22 11:49:19;;;;;;;0.60;0.60;;;;;;;;;;5070266;28;20257;-70
2022/06/22 11:52:47;;;;;;;0.60;0.60;;;;;;;;;;5066276;28;20257;-69
2022/06/22 11:55:39;;;;;;;0.60;0.60;;;;;;;;;;5078170;28;20215;-69
2022/06/22 11:58:44;;;;;;;0.40;0.40;;;;;;;;;;5074372;28;20299;-69
2022/06/22 12:01:59;;;;;;;0.53;0.53;;;;;;;;;;5079305;28;20333;-69
2022/06/22 12:05:23;;;;;;;0.37;0.37;;;;;;;;;;5079082;28;20207;-69
2022/06/22 12:08:24;;;;;;;0.60;0.60;;;;;;;;;;5062353;28;20237;-69
2022/06/22 12:11:17;;;;;;;0.40;0.40;;;;;;;;;;5077957;28;20205;-68
2022/06/22 12:17:39;;;;;;;0.70;0.60;;;;;;;;;;5090457;28;20195;-70
2022/06/22 12:20:36;;;;;;;0.63;0.63;;;;;;;;;;5079779;28;20271;-69
2022/06/22 12:23:38;;;;;;;0.63;0.53;;;;;;;;;;5077184;28;20561;-68
2022/06/22 12:26:37;;;;;;;0.53;0.50;;;;;;;;;;5081537;28;20224;-68
2022/06/22 12:29:49;;;;;;;0.47;0.47;;;;;;;;;;5076143;28;20219;-68
2022/06/22 12:32:43;;;;;;;0.30;0.30;;;;;;;;;;5083831;28;20214;-68
2022/06/22 12:35:37;;;;;;;0.40;0.40;;;;;;;;;;5087532;28;20978;-68
2022/06/22 12:38:29;;;;;;;1.23;0.57;;;;;;;;;;5081937;28;20580;-68
2022/06/22 12:41:31;;;;;;;0.30;0.30;;;;;;;;;;5085648;28;20220;-68
2022/06/22 12:44:41;;;;;;;0.67;0.37;;;;;;;;;;5077227;28;20223;-67
2022/06/22 12:48:06;;;;;;;0.50;0.50;;;;;;;;;;5084772;28;20623;-68
2022/06/22 12:51:06;;;;;;;0.50;0.50;;;;;;;;;;5061507;28;20236;-67
2022/06/22 12:54:00;;;;;;;0.73;0.30;;;;;;;;;;5084663;28;20214;-67
2022/06/22 12:56:52;;;;;;;0.53;0.53;;;;;;;;;;5079758;28;20209;-68
2022/06/22 12:59:44;;;;;;;0.60;0.60;;;;;;;;;;5078738;28;20289;-68
2022/06/22 13:02:33;;;;;;;0.50;0.50;;;;;;;;;;5078252;28;20877;-68
2022/06/22 13:05:24;;;;;;;0.50;0.50;;;;;;;;;;5077708;28;20297;-68
2022/06/22 13:08:16;;;;;;;0.60;0.60;;;;;;;;;;5069381;28;20226;-69
2022/06/22 13:11:08;;;;;;;0.40;0.40;;;;;;;;;;5076194;28;20206;-70
2022/06/22 13:14:03;;;;;;;0.50;0.50;;;;;;;;;;5084930;28;20199;-69
2022/06/22 13:16:59;;;;;;;0.50;0.50;;;;;;;;;;5079146;28;20208;-68
2022/06/22 13:20:07;;;;;;;0.77;0.40;;;;;;;;;;5078389;28;20202;-68
2022/06/22 13:23:03;;;;;;;0.77;0.57;;;;;;;;;;5085117;28;20210;-69
2022/06/22 13:25:56;;;;;;;0.60;0.60;;;;;;;;;;5070644;28;20225;-67
2022/06/22 13:28:51;;;;;;;1.07;0.33;;;;;;;;;;5082004;28;20299;-68
2022/06/22 13:31:42;;;;;;;0.60;0.60;;;;;;;;;;5077735;28;20638;-68
2022/06/22 13:34:36;;;;;;;0.50;0.50;;;;;;;;;;5079118;28;20704;-68
2022/06/22 13:37:31;;;;;;;0.50;0.50;;;;;;;;;;5066883;28;20210;-68
2022/06/22 13:40:29;;;;;;;0.40;0.40;;;;;;;;;;5081352;28;20210;-68
2022/06/22 13:43:32;;;;;;;0.40;0.40;;;;;;;;;;5074786;28;20542;-68
2022/06/22 13:46:35;;;;;;;0.63;0.63;;;;;;;;;;5079026;28;20223;-68
2022/06/22 13:49:35;;;;;;;0.63;0.60;;;;;;;;;;5074389;28;20527;-68
2022/06/22 13:52:33;;;;;;;0.97;0.50;;;;;;;;;;5077990;28;20212;-68
2022/06/22 13:55:35;;;;;;;0.50;0.50;;;;;;;;;;5086490;28;20285;-68
2022/06/22 13:58:26;;;;;;;0.63;0.63;;;;;;;;;;5081113;28;20209;-68
2022/06/22 14:01:18;;;;;;;2.20;0.83;;;;;;;;;;5083631;28;20208;-68
2022/06/22 14:04:13;;;;;;;0.60;0.60;;;;;;;;;;5078239;28;20594;-68
2022/06/22 14:07:05;;;;;;;0.80;0.50;;;;;;;;;;5080308;28;20232;-68
2022/06/22 14:09:58;;;;;;;0.50;0.50;;;;;;;;;;5072927;28;20196;-68
2022/06/22 14:12:52;;;;;;;0.50;0.50;;;;;;;;;;5081765;28;20205;-68
2022/06/22 14:15:47;;;;;;;0.70;0.70;;;;;;;;;;5085534;28;20216;-68
2022/06/22 14:18:41;;;;;;;0.60;0.60;;;;;;;;;;5076242;28;20213;-68
2022/06/22 14:21:36;;;;;;;0.60;0.60;;;;;;;;;;5069084;28;20241;-68
2022/06/22 14:24:27;;;;;;;0.70;0.70;;;;;;;;;;5079650;28;20217;-68
2022/06/22 14:27:39;;;;;;;0.60;0.50;;;;;;;;;;5078434;28;20236;-68
2022/06/22 14:30:43;;;;;;;0.70;0.53;;;;;;;;;;5076206;28;20210;-68
2022/06/22 14:33:46;;;;;;;0.60;0.60;;;;;;;;;;5081932;28;20240;-68
2022/06/22 14:36:38;;;;;;;1.13;0.50;;;;;;;;;;5076128;28;20209;-68
2022/06/22 14:39:30;;;;;;;0.50;0.50;;;;;;;;;;5075382;28;20205;-68
2022/06/22 14:42:22;;;;;;;0.70;0.70;;;;;;;;;;5069609;28;20202;-68
2022/06/22 14:45:17;;;;;;;0.77;0.77;;;;;;;;;;5072762;28;20274;-68
2022/06/22 14:48:14;;;;;;;0.50;0.50;;;;;;;;;;5085768;28;20599;-68
2022/06/22 14:51:16;;;;;;;0.67;0.60;;;;;;;;;;5080061;28;20211;-68
2022/06/22 14:54:10;;;;;;;0.63;0.63;;;;;;;;;;5081457;28;20200;-68
2022/06/22 14:57:03;;;;;;;0.60;0.60;;;;;;;;;;5079606;28;20562;-68
2022/06/22 15:00:17;;;;;;;0.60;0.60;;;;;;;;;;5080345;28;20209;-67
2022/06/22 15:03:19;;;;;;;0.80;0.80;;;;;;;;;;5083168;28;20306;-68
2022/06/22 15:06:16;;;;;;;1.33;0.90;;;;;;;;;;5079158;28;20239;-68
2022/06/22 15:09:07;;;;;;;0.80;0.80;;;;;;;;;;5078119;28;20236;-68
2022/06/22 15:15:21;;;;;;;1.17;1.00;;;;;;;;;;5075365;28;20198;-68
2022/06/22 15:18:24;;;;;;;0.67;0.67;;;;;;;;;;5082025;28;20200;-68
2022/06/22 15:21:18;;;;;;;0.60;0.60;;;;;;;;;;5075571;28;20582;-68
2022/06/22 15:24:13;;;;;;;0.63;0.50;;;;;;;;;;5079764;28;20658;-68
2022/06/22 15:27:04;;;;;;;0.60;0.60;;;;;;;;;;5072015;28;20197;-68
2022/06/22 15:29:56;;;;;;;1.13;0.70;;;;;;;;;;5078554;28;20197;-67
2022/06/22 15:32:49;;;;;;;0.90;0.80;;;;;;;;;;5080153;28;20223;-69
2022/06/22 15:35:43;;;;;;;0.80;0.80;;;;;;;;;;5069015;28;20212;-68
2022/06/22 15:38:41;;;;;;;0.93;0.80;;;;;;;;;;5079442;28;20292;-68
2022/06/22 15:41:32;;;;;;;0.60;0.60;;;;;;;;;;5076989;28;20211;-68
2022/06/22 15:44:24;;;;;;;0.67;0.67;;;;;;;;;;5081249;28;20209;-67
2022/06/22 15:47:17;;;;;;;0.80;0.80;;;;;;;;;;5087301;28;20637;-69
2022/06/22 15:50:21;;;;;;;1.10;0.97;;;;;;;;;;5074581;28;20566;-68
2022/06/22 15:53:16;;;;;;;0.77;0.77;;;;;;;;;;5078729;28;20565;-69
2022/06/22 15:56:21;;;;;;;0.80;0.80;;;;;;;;;;5080041;28;20238;-68
2022/06/22 15:59:13;;;;;;;0.60;0.60;;;;;;;;;;5078361;28;20291;-68
2022/06/22 16:02:05;;;;;;;0.77;0.77;;;;;;;;;;5083640;28;20583;-69
2022/06/22 16:04:56;;;;;;;0.70;0.70;;;;;;;;;;5083004;28;20684;-68
2022/06/22 16:07:51;;;;;;;0.67;0.63;;;;;;;;;;5083147;28;20615;-69
2022/06/22 16:13:27;;;;;;;0.70;0.70;;;;;;;;;;5083677;28;20285;-68
2022/06/22 16:13:58;;;;;;;0.70;0.70;;;;;;;;;;5076985;28;20241;-68
2022/06/22 16:16:49;;;;;;;0.77;0.77;;;;;;;;;;5082388;28;20582;-68
2022/06/22 16:19:46;;;;;;;1.07;1.07;;;;;;;;;;5079651;28;20216;-69
2022/06/22 16:22:38;;;;;;;0.80;0.80;;;;;;;;;;5083660;28;20210;-68
2022/06/22 16:25:28;;;;;;;1.00;1.00;;;;;;;;;;5076885;28;20594;-68
2022/06/22 16:28:23;;;;;;;0.77;0.60;;;;;;;;;;5082073;28;20219;-68
2022/06/22 16:31:13;;;;;;;1.30;0.97;;;;;;;;;;5077936;28;20206;-69
2022/06/22 16:34:05;;;;;;;1.00;0.90;;;;;;;;;;5071450;28;20220;-70
2022/06/22 16:36:58;;;;;;;0.90;0.90;;;;;;;;;;5077181;28;20208;-68
2022/06/22 16:39:58;;;;;;;0.80;0.80;;;;;;;;;;5086144;28;20720;-69
2022/06/22 16:43:03;;;;;;;0.73;0.73;;;;;;;;;;5084768;28;20623;-69
2022/06/22 16:45:56;;;;;;;0.80;0.80;;;;;;;;;;5087114;28;20207;-69
2022/06/22 16:48:47;;;;;;;0.97;0.97;;;;;;;;;;5079403;28;20715;-68
2022/06/22 16:51:39;;;;;;;1.07;0.90;;;;;;;;;;5077034;28;20205;-69
2022/06/22 16:54:30;;;;;;;0.87;0.87;;;;;;;;;;5076777;28;20216;-68
2022/06/22 16:57:20;;;;;;;1.37;0.73;;;;;;;;;;5077925;28;20199;-68
2022/06/22 17:00:09;;;;;;;0.80;0.80;;;;;;;;;;5076137;28;20207;-68
2022/06/22 17:03:04;;;;;;;0.97;0.97;;;;;;;;;;5075490;28;20238;-68
2022/06/22 17:06:02;;;;;;;0.93;0.93;;;;;;;;;;5075304;28;20618;-68
2022/06/22 17:09:01;;;;;;;1.23;1.13;;;;;;;;;;5074270;28;20261;-68
2022/06/22 17:11:50;;;;;;;0.97;0.97;;;;;;;;;;5075315;28;20602;-69
2022/06/22 17:14:41;;;;;;;0.97;0.97;;;;;;;;;;5075638;28;20378;-68
2022/06/22 17:17:37;;;;;;;1.30;1.20;;;;;;;;;;5072986;28;20217;-68
2022/06/22 17:20:31;;;;;;;0.80;0.80;;;;;;;;;;5074391;28;20210;-68
2022/06/22 17:23:27;;;;;;;1.77;1.40;;;;;;;;;;5078707;28;20602;-68
2022/06/22 17:26:21;;;;;;;0.93;0.93;;;;;;;;;;5072651;28;20198;-68
2022/06/22 17:29:16;;;;;;;1.30;1.20;;;;;;;;;;5083642;28;20293;-68
2022/06/22 17:32:14;;;;;;;1.00;1.00;;;;;;;;;;5084429;28;20203;-68
2022/06/22 17:35:19;;;;;;;1.10;1.00;;;;;;;;;;5082789;28;20231;-68
2022/06/22 17:38:21;;;;;;;1.20;1.10;;;;;;;;;;5077159;28;20657;-69
2022/06/22 17:41:21;;;;;;;1.20;1.03;;;;;;;;;;5079130;28;20205;-70
2022/06/22 17:44:13;;;;;;;1.00;0.90;;;;;;;;;;5080339;28;20208;-69
2022/06/22 17:47:02;;;;;;;1.03;1.00;;;;;;;;;;5079445;28;20205;-69
2022/06/22 17:49:50;;;;;;;1.63;1.10;;;;;;;;;;5080757;28;20318;-69
2022/06/22 17:52:37;;;;;;;1.73;1.07;;;;;;;;;;5083737;28;20210;-69
2022/06/22 17:55:29;;;;;;;1.10;1.00;;;;;;;;;;5081169;28;20202;-69
2022/06/22 17:58:22;;;;;;;1.07;1.07;;;;;;;;;;5077438;28;20210;-69
2022/06/22 18:01:13;;;;;;;0.90;0.90;;;;;;;;;;5080918;28;20213;-68
2022/06/22 18:04:05;;;;;;;1.03;1.03;;;;;;;;;;5083414;28;20205;-68
2022/06/22 18:06:55;;;;;;;1.27;1.27;;;;;;;;;;5075759;28;20226;-69